Landels-Hill Big Creek Reserve Entrance, California Weather observations

Data are for 10 minute period ending at time listed.
 Day   Time   Solar   Ave.   Ave.  Ave.  Vector  Max.   Baro.   Total    
  of    of     Rad.   Air    Rel.  Wind   Wind   Wind  Press.  Precip.   
Year   Day            Temp.  Hum.  Speed  Dir.   Gust                    
2015   (PST)  Kw/m2    F      %     mph   deg.    mph    mb.     in.     
-------------------------------------------------------------------------
  87   17:10   0.24   62.2    69    1.3   269     5.0   1013.6    0.00 
  87   17:20   0.21   61.4    69    0.4   303     2.6   1013.6    0.00 
  87   17:30   0.10   61.0    70    1.2     0     2.6   1013.5    0.00 
  87   17:40   0.05   59.6    74    1.5    31     4.7   1013.1    0.00 
  87   17:50   0.04   59.4    74    0.4   240     2.6   1012.7    0.00 
  87   18:00   0.03   58.2    75    0.2   262     2.1   1012.6    0.00 
  87   18:10   0.02   57.5    77    0.3    16     1.3   1012.6    0.00 
  87   18:20   0.01   56.9    79    0.9     6     2.9   1012.6    0.00 
  87   18:30   0.01   56.4    81    1.4     7     3.6   1012.5    0.00 
  87   18:40   0.00   56.7    81    0.4    90     1.8   1012.6    0.00 
  87   18:50   0.00   56.7    81    0.6    19     1.5   1012.8    0.00 
  87   19:00   0.00   56.5    82    0.4    18     1.3   1012.9    0.00 
  87   19:10   0.00   56.0    83    1.0    42     2.6   1012.8    0.00 
  87   19:20   0.00   56.2    82    0.9    35     2.5   1013.0    0.00 
  87   19:30   0.00   55.9    82    2.5    22     6.8   1013.0    0.00 
  87   19:40   0.00   57.7    71    2.2    53     6.0   1013.0    0.00 
  87   19:50   0.00   58.5    70    2.3   160     5.1   1013.3    0.00 
  87   20:00   0.00   57.1    78    2.1    24     5.5   1013.3    0.00 
  87   20:10   0.00   56.7    76    1.7   111     3.9   1013.3    0.00 
  87   20:20   0.00   57.8    74    1.8   156     3.0   1013.7    0.00 
  87   20:30   0.00   57.1    77    1.3    16     3.9   1013.6    0.00 
  87   20:40   0.00   56.7    77    1.2   119     3.1   1013.6    0.00 
  87   20:50   0.00   56.6    76    0.5   356     2.0   1013.8    0.00 
  87   21:00   0.00   55.4    79    0.4     4     1.9   1013.8    0.00 
  87   21:10   0.00   54.6    82    0.6    37     2.3   1013.8    0.00 
  87   21:20   0.00   54.3    82    0.4     5     2.5   1013.8    0.00 
  87   21:30   0.00   53.9    84    0.8    90     3.3   1014.0    0.00 
  87   21:40   0.00   55.3    83    1.0   144     2.7   1014.2    0.00 
  87   21:50   0.00   54.6    84    0.4     4     3.2   1014.3    0.00 
  87   22:00   0.00   53.8    85    0.4    27     2.0   1014.3    0.00 
  87   22:10   0.00   53.3    87    0.9    23     2.7   1014.4    0.00 
  87   22:20   0.00   53.4    88    1.9    11     4.3   1014.4    0.00 
  87   22:30   0.00   53.5    87    1.6    65     4.8   1014.5    0.00 
  87   22:40   0.00   53.8    86    0.7   194     3.8   1014.5    0.00 
  87   22:50   0.00   53.3    86    1.0    32     3.0   1014.5    0.00 
  87   23:00   0.00   53.2    86    1.3     8     3.9   1014.7    0.00 
  87   23:10   0.00   52.9    87    2.5    27     4.4   1014.6    0.00 
  87   23:20   0.00   53.2    85    0.9    44     2.9   1014.5    0.00 
  87   23:30   0.00   53.1    84    0.3    13     1.2   1014.6    0.00 
  87   23:40   0.00   52.3    85    0.6   349     2.3   1014.6    0.00 
  87   23:50   0.00   51.9    87    1.5   356     3.9   1014.6    0.00 
  88    0:00   0.00   52.0    87    1.3     8     3.3   1014.6    0.00 
  88    0:10   0.00   51.7    87    1.1   353     3.5   1014.7    0.00 
  88    0:20   0.00   51.7    88    1.6     8     3.9   1014.6    0.00 
  88    0:30   0.00   51.8    87    1.3    29     3.6   1014.5    0.00 
  88    0:40   0.00   52.3    87    1.0   107     2.0   1014.6    0.00 
  88    0:50   0.00   53.2    85    1.1   115     2.4   1014.5    0.00 
  88    1:00   0.00   53.5    85    0.9   112     2.5   1014.6    0.00 
  88    1:10   0.00   53.0    85    0.7    84     2.9   1014.7    0.00 
  88    1:20   0.00   51.8    87    1.3    25     3.2   1014.6    0.00 
  88    1:30   0.00   51.8    88    0.7    26     1.8   1014.5    0.00 
  88    1:40   0.00   51.0    88    0.9     5     2.3   1014.4    0.00 
  88    1:50   0.00   50.6    89    1.0    10     2.7   1014.5    0.00 
  88    2:00   0.00   50.1    89    1.2     9     3.3   1014.5    0.00 
  88    2:10   0.00   49.9    90    2.2    12     4.5   1014.4    0.00 
  88    2:20   0.00   50.1    90    2.3    56     5.3   1014.1    0.00 
  88    2:30   0.00   50.9    84    1.5   186     4.4   1014.0    0.00 
  88    2:40   0.00   51.2    86    1.4   101     3.4   1014.3    0.00 
  88    2:50   0.00   52.0    84    0.4    42     2.3   1014.3    0.00 
  88    3:00   0.00   50.6    85    1.1    22     2.3   1014.3    0.00 
  88    3:10   0.00   49.8    87    1.7    29     3.9   1014.3    0.00 
  88    3:20   0.00   49.8    88    1.5    60     4.2   1014.3    0.00 
  88    3:30   0.00   49.5    87    1.8    30     4.8   1014.3    0.00 
  88    3:40   0.00   50.3    81    2.4    62     4.6   1014.2    0.00 
  88    3:50   0.00   51.2    74    1.4    31     4.4   1014.3    0.00 
  88    4:00   0.00   49.8    76    2.6    34     7.0   1014.1    0.00 
  88    4:10   0.00   51.6    64    2.5    37     7.0   1014.1    0.00 
  88    4:20   0.00   51.6    63    2.3    37     6.0   1014.0    0.00 
  88    4:30   0.00   51.5    62    3.0    47     7.1   1014.0    0.00 
  88    4:40   0.00   52.0    59    3.0    48     6.4   1014.0    0.00 
  88    4:50   0.00   52.3    57    2.9    26     7.5   1013.9    0.00 
  88    5:00   0.00   53.0    55    1.8    33     5.4   1013.9    0.00 
  88    5:10   0.00   51.8    62    0.7     2     2.1   1014.0    0.00 
  88    5:20   0.00   49.8    68    2.0    18     4.9   1014.0    0.00 
  88    5:30   0.00   49.6    69    1.7    20     4.1   1014.1    0.00 
  88    5:40   0.00   51.0    68    1.6    79     4.0   1014.3    0.00 
  88    5:50   0.00   51.7    75    1.0    56     3.5   1014.8    0.00 
  88    6:00   0.00   50.9    80    2.2     4     5.0   1014.8    0.00 
  88    6:10   0.01   51.1    73    3.7    26     9.3   1014.5    0.00 
  88    6:20   0.01   52.8    59    2.5    36     8.0   1014.6    0.00 
  88    6:30   0.01   53.0    67    1.2    92     4.2   1014.9    0.00 
  88    6:40   0.01   51.7    72    1.2   121     4.2   1014.8    0.00 
  88    6:50   0.01   50.5    72    1.6    28     3.9   1014.7    0.00 
  88    7:00   0.01   52.0    60    4.5    37     9.3   1014.4    0.00 
  88    7:10   0.01   54.6    58    1.5    42     6.6   1014.5    0.00 
  88    7:20   0.02   53.1    70    0.5   351     2.8   1014.6    0.00 
  88    7:30   0.03   52.1    80    1.2   245     5.9   1014.8    0.00 
  88    7:40   0.03   52.7    87    2.5   269    11.4   1014.9    0.00 
  88    7:50   0.03   52.7    88    1.2    22     2.9   1014.9    0.00 
  88    8:00   0.03   52.6    87    2.1    23     5.2   1015.0    0.00 
  88    8:10   0.03   52.8    85    0.6   351     2.0   1015.1    0.00 
  88    8:20   0.03   52.3    85    0.2   358     1.5   1015.2    0.00 
  88    8:30   0.04   52.7    86    0.1   242     1.8   1015.2    0.00 
  88    8:40   0.04   53.2    87    0.6   224     2.9   1015.3    0.00 
  88    8:50   0.05   53.5    88    1.7   272     5.7   1015.5    0.00 
  88    9:00   0.05   53.7    88    0.9   231     4.2   1015.6    0.00 
  88    9:10   0.05   53.9    87    1.0   224     3.0   1015.6    0.00 
  88    9:20   0.05   54.1    86    2.0   250     4.9   1015.5    0.00 
  88    9:30   0.15   54.6    86    2.5   257     7.1   1015.7    0.00 
  88    9:40   0.58   55.6    83    3.1   272     6.4   1015.8    0.00 
  88    9:50   0.64   56.7    79    2.1   266     5.6   1015.6    0.00 
  88   10:00   0.66   57.8    77    1.5   271     4.5   1015.6    0.00 
  88   10:10   0.69   59.1    72    2.0   265     5.1   1015.7    0.00 
  88   10:20   0.72   57.8    77    2.5   250     5.3   1015.7    0.00 
  88   10:30   0.75   58.1    75    3.2   254     8.8   1015.6    0.00 
  88   10:40   0.78   58.4    73    3.6   257     6.7   1015.4    0.00 
  88   10:50   0.79   57.8    75    3.7   268     7.6   1015.5    0.00 
  88   11:00   0.81   58.3    77    2.2   219     4.4   1015.5    0.00 
  88   11:10   0.83   58.9    74    1.9   228     5.8   1015.5    0.00 
  88   11:20   0.84   59.2    72    2.0   230     4.4   1015.4    0.00 
  88   11:30   0.86   59.3    72    2.0   222     5.3   1015.3    0.00 
  88   11:40   0.86   59.0    73    2.7   229     5.8   1015.2    0.00 
  88   11:50   0.88   59.1    72    2.5   237     5.6   1015.0    0.00 
  88   12:00   0.88   60.0    69    2.1   242     4.7   1014.9    0.00 
  88   12:10   0.89   60.5    67    2.4   229     4.6   1014.7    0.00 
  88   12:20   0.89   60.1    69    2.9   229     5.8   1014.5    0.00 
  88   12:30   0.89   60.1    70    2.5   220     4.5   1014.6    0.00 
  88   12:40   0.89   59.2    74    2.4   208     4.6   1014.5    0.00 
  88   12:50   0.88   59.1    74    2.5   210     4.5   1014.3    0.00 
  88   13:00   0.88   59.8    72    2.5   206     4.3   1014.0    0.00 
  88   13:10   0.87   60.9    69    2.8   204     6.0   1014.0    0.00 
  88   13:20   0.86   60.5    70    1.8   223     4.5   1014.2    0.00 
  88   13:30   0.85   60.8    70    2.0   220     4.9   1014.1    0.00 
  88   13:40   0.84   61.3    70    1.9   215     3.8   1013.8    0.00 
  88   13:50   0.82   61.4    71    1.8   207     4.7   1013.9    0.00 
  88   14:00   0.81   61.2    70    2.3   212     4.7   1013.9    0.00 
  88   14:10   0.79   61.6    71    2.0   178     4.7   1014.0    0.00 
  88   14:20   0.77   62.7    68    2.4   231     6.5   1014.0    0.00 
  88   14:30   0.75   63.0    65    2.0   218     4.5   1013.9    0.00 
  88   14:40   0.72   61.9    68    4.0   198    10.9   1014.0    0.00 
  88   14:50   0.70   60.1    72    4.2   182    10.3   1014.0    0.00 
  88   15:00   0.67   62.0    70    2.3   210     5.3   1013.7    0.00 
  88   15:10   0.65   63.4    67    2.0   215     4.8   1013.6    0.00 
  88   15:20   0.62   63.5    66    2.1   192     5.6   1013.7    0.00 
  88   15:30   0.59   62.8    66    2.2   215     4.4   1013.7    0.00 
  88   15:40   0.56   62.6    66    1.7   201     4.7   1013.7    0.00 
  88   15:50   0.53   63.3    67    2.1   211     4.9   1013.7    0.00 
  88   16:00   0.49   63.5    65    1.6   198     4.1   1013.7    0.00 
  88   16:10   0.46   63.4    66    1.9   196     6.1   1013.7    0.00 
  88   16:20   0.42   62.9    67    2.0   241     4.7   1013.6    0.00 
  88   16:30   0.39   62.0    68    1.8   230     3.9   1013.5    0.00 
  88   16:40   0.35   62.8    67    1.4   213     3.5   1013.4    0.00 
  88   16:50   0.31   62.2    68    1.8   233     4.0   1013.3    0.00 
  88   17:00   0.27   61.4    70    1.6   221     4.0   1013.3    0.00 

Return to Big Creek Reserve Entrance graphs page.


Western Regional Climate Center,wrcc@dri.edu